createdAt,value
2022-10-31T06:32:18.281Z,9.40
2022-10-31T06:34:45.508Z,9.50
2022-10-31T06:37:13.298Z,9.60
2022-10-31T06:39:40.945Z,9.70
2022-10-31T06:42:08.123Z,9.70
2022-10-31T06:44:35.362Z,9.90
2022-10-31T06:47:02.846Z,9.90
2022-10-31T06:49:30.011Z,10.00
2022-10-31T06:51:57.210Z,10.10
2022-10-31T06:54:24.405Z,10.20
2022-10-31T06:56:52.285Z,10.40
2022-10-31T06:59:19.528Z,10.50
2022-10-31T07:01:46.805Z,10.50
2022-10-31T07:04:14.437Z,10.60
2022-10-31T07:06:41.628Z,10.80
2022-10-31T07:09:08.928Z,11.00
2022-10-31T07:11:36.117Z,11.20
2022-10-31T07:14:03.352Z,11.20
2022-10-31T07:16:30.754Z,11.30
2022-10-31T07:18:57.926Z,11.40
2022-10-31T07:21:25.072Z,11.40
2022-10-31T07:23:52.269Z,11.60
2022-10-31T07:26:19.420Z,11.80
2022-10-31T07:28:49.028Z,12.00
2022-10-31T07:31:16.371Z,12.10
2022-10-31T07:33:43.527Z,12.30
2022-10-31T07:36:10.729Z,12.30
2022-10-31T07:38:37.904Z,12.30
2022-10-31T07:41:05.436Z,12.40
2022-10-31T07:43:32.578Z,12.70
2022-10-31T07:45:59.755Z,12.90
2022-10-31T07:48:26.949Z,13.10
2022-10-31T07:50:54.069Z,13.30
2022-10-31T07:53:21.337Z,13.40
2022-10-31T07:55:48.504Z,13.60
2022-10-31T07:58:17.749Z,13.80
2022-10-31T08:00:47.288Z,13.80
2022-10-31T08:03:16.972Z,14.00
2022-10-31T08:05:46.914Z,14.10
2022-10-31T08:08:15.157Z,14.20
2022-10-31T08:10:42.622Z,14.50
2022-10-31T08:13:12.126Z,14.70
2022-10-31T08:15:42.195Z,14.90
2022-10-31T08:18:14.114Z,15.00
2022-10-31T08:20:43.037Z,14.80
2022-10-31T08:23:11.965Z,14.80
2022-10-31T08:25:39.583Z,15.00
2022-10-31T08:28:07.896Z,15.30
2022-10-31T08:30:37.692Z,16.30
2022-10-31T08:33:11.178Z,15.90
2022-10-31T08:35:38.994Z,15.90
2022-10-31T08:38:06.758Z,16.00
2022-10-31T08:40:35.980Z,16.10
2022-10-31T08:43:05.686Z,16.40
2022-10-31T08:45:34.724Z,16.80
2022-10-31T08:48:05.542Z,17.30
2022-10-31T08:50:35.762Z,17.80
2022-10-31T08:53:06.103Z,18.10
2022-10-31T08:55:37.820Z,18.40
2022-10-31T08:58:07.405Z,18.60
2022-10-31T09:00:35.860Z,18.40
2022-10-31T09:03:06.525Z,18.30
2022-10-31T09:05:34.431Z,18.40
2022-10-31T09:08:04.031Z,19.00
2022-10-31T09:10:33.486Z,19.80
2022-10-31T09:13:05.133Z,20.30
2022-10-31T09:15:33.317Z,20.60
2022-10-31T09:18:01.865Z,20.30
2022-10-31T09:20:30.176Z,20.60
2022-10-31T09:22:59.778Z,20.40
2022-10-31T09:25:28.167Z,19.80
2022-10-31T09:27:58.869Z,19.40
2022-10-31T09:30:28.509Z,19.30
2022-10-31T09:32:57.666Z,19.40
2022-10-31T09:35:26.040Z,19.50
2022-10-31T09:37:57.874Z,19.20
2022-10-31T09:40:45.141Z,19.20
2022-10-31T09:43:36.465Z,18.90
2022-10-31T09:46:27.341Z,18.80
2022-10-31T09:49:14.045Z,18.80
2022-10-31T09:51:50.450Z,18.60
2022-10-31T09:54:42.480Z,18.50
2022-10-31T09:57:15.834Z,18.50
2022-10-31T09:59:45.728Z,18.80
2022-10-31T10:02:38.547Z,19.00
2022-10-31T10:05:18.267Z,18.80
2022-10-31T10:08:02.455Z,18.90
2022-10-31T10:10:51.580Z,19.20
2022-10-31T10:13:41.475Z,19.70
2022-10-31T10:16:34.614Z,19.30
2022-10-31T10:19:07.110Z,19.60
2022-10-31T10:21:55.254Z,19.90
2022-10-31T10:27:32.750Z,20.10
2022-10-31T10:30:14.847Z,20.50
2022-10-31T10:32:50.988Z,20.50
2022-10-31T10:35:29.013Z,20.20
2022-10-31T10:38:19.622Z,20.10
2022-10-31T10:40:47.392Z,19.80
2022-10-31T10:43:23.355Z,20.00
2022-10-31T10:46:21.406Z,20.10
2022-10-31T10:49:03.536Z,20.00
2022-10-31T10:54:56.946Z,19.80
2022-10-31T10:58:04.603Z,20.20
2022-10-31T11:00:41.479Z,19.70
2022-10-31T11:03:10.399Z,19.60
2022-10-31T11:05:59.835Z,19.40
2022-10-31T11:08:32.840Z,19.10
2022-10-31T11:14:01.776Z,18.80
2022-10-31T11:16:38.096Z,18.90
2022-10-31T11:19:18.220Z,18.90
2022-10-31T11:21:52.648Z,18.70
2022-10-31T11:24:28.518Z,18.70
2022-10-31T11:27:15.189Z,18.90
2022-10-31T11:29:42.587Z,18.60
2022-10-31T11:32:23.046Z,18.80
2022-10-31T11:34:56.070Z,18.80
2022-10-31T11:37:28.021Z,18.80
2022-10-31T11:39:59.950Z,18.50
2022-10-31T11:42:35.610Z,18.50
2022-10-31T11:45:16.563Z,18.40
2022-10-31T11:47:48.603Z,18.40
2022-10-31T11:50:36.063Z,18.40
2022-10-31T11:53:04.476Z,18.60
2022-10-31T11:55:39.095Z,18.70
2022-10-31T11:58:23.368Z,18.60
2022-10-31T12:00:53.528Z,18.70
2022-10-31T12:06:19.024Z,18.90
2022-10-31T12:08:47.548Z,19.00
2022-10-31T12:14:29.462Z,19.20
2022-10-31T12:17:19.147Z,19.50
2022-10-31T12:20:26.258Z,19.70
2022-10-31T12:23:19.573Z,19.60
2022-10-31T12:25:51.453Z,19.70
2022-10-31T12:31:48.051Z,19.30
2022-10-31T12:40:34.596Z,18.80
2022-10-31T12:43:27.696Z,18.70
2022-10-31T12:45:58.426Z,18.70
2022-10-31T12:48:57.430Z,18.60
2022-10-31T12:51:50.806Z,18.70
2022-10-31T12:54:49.935Z,18.70
2022-10-31T12:57:30.140Z,18.60
2022-10-31T13:00:04.388Z,18.50
2022-10-31T13:05:40.716Z,18.40
2022-10-31T13:08:18.237Z,18.40
2022-10-31T13:11:03.731Z,18.50
2022-10-31T13:13:42.692Z,18.60
2022-10-31T13:16:23.240Z,18.50
2022-10-31T13:18:59.836Z,18.50
2022-10-31T13:21:34.311Z,18.70
2022-10-31T13:24:05.279Z,18.80
2022-10-31T13:26:53.321Z,19.00
2022-10-31T13:29:33.228Z,19.30
2022-10-31T13:32:06.019Z,19.50
2022-10-31T13:34:41.572Z,19.60
2022-10-31T13:37:53.713Z,19.70
2022-10-31T13:40:38.420Z,19.60
2022-10-31T13:43:20.268Z,19.20
2022-10-31T13:45:50.852Z,19.10
2022-10-31T13:51:00.820Z,18.50
2022-10-31T13:53:44.450Z,18.10
2022-10-31T13:56:18.075Z,17.70
2022-10-31T13:58:59.694Z,17.70
2022-10-31T14:01:29.975Z,17.90
2022-10-31T14:04:12.227Z,18.30
2022-10-31T14:06:48.618Z,18.00
2022-10-31T14:09:39.028Z,18.00
2022-10-31T14:12:10.573Z,17.90
2022-10-31T14:14:47.688Z,18.00
2022-10-31T14:17:21.500Z,18.10
2022-10-31T14:22:50.240Z,18.30
2022-10-31T14:25:35.231Z,18.30
2022-10-31T14:28:18.876Z,18.30
2022-10-31T14:31:01.697Z,18.40
2022-10-31T14:33:31.469Z,18.40
2022-10-31T14:36:19.859Z,18.30
2022-10-31T14:39:08.348Z,18.30
2022-10-31T14:42:10.009Z,18.10
2022-10-31T14:44:55.425Z,18.00
2022-10-31T14:48:06.823Z,17.90
2022-10-31T14:50:50.224Z,17.70
2022-10-31T14:53:29.207Z,17.70
2022-10-31T14:56:02.694Z,17.70
2022-10-31T14:58:41.625Z,17.60
2022-10-31T15:01:09.238Z,17.50
2022-10-31T15:03:44.521Z,17.40
2022-10-31T15:06:19.425Z,17.50
2022-10-31T15:08:49.726Z,17.20
2022-10-31T15:11:21.745Z,17.10
2022-10-31T15:13:51.616Z,17.00
2022-10-31T15:16:24.756Z,16.90
2022-10-31T15:18:57.182Z,16.80
2022-10-31T15:21:26.898Z,16.70
2022-10-31T15:23:55.617Z,16.60
2022-10-31T15:26:24.984Z,16.50
2022-10-31T15:29:13.825Z,16.50
2022-10-31T15:31:51.432Z,16.50
2022-10-31T15:34:40.599Z,16.40
2022-10-31T15:37:14.745Z,16.30
2022-10-31T15:39:43.269Z,16.20
2022-10-31T15:42:40.143Z,16.20
2022-10-31T15:45:19.638Z,16.20
2022-10-31T15:47:55.365Z,16.10
2022-10-31T15:50:41.607Z,16.10
2022-10-31T15:53:45.979Z,16.00
2022-10-31T15:56:21.495Z,16.00
2022-10-31T15:58:52.513Z,15.90
2022-10-31T16:01:23.759Z,15.90
2022-10-31T16:04:13.606Z,15.80
2022-10-31T16:06:41.018Z,15.70
2022-10-31T16:09:24.987Z,15.70
2022-10-31T16:11:52.386Z,15.60
2022-10-31T16:14:25.999Z,15.50
2022-10-31T16:16:57.704Z,15.50
2022-10-31T16:19:31.251Z,15.60
2022-10-31T16:22:20.926Z,15.30
2022-10-31T16:24:54.268Z,15.20
2022-10-31T16:27:27.980Z,15.20
2022-10-31T16:29:57.379Z,15.00
2022-10-31T16:32:31.527Z,15.00
2022-10-31T16:35:12.721Z,15.00
2022-10-31T16:37:41.241Z,15.10
2022-10-31T16:40:12.063Z,15.20
2022-10-31T16:42:39.309Z,15.20
2022-10-31T16:45:08.477Z,15.20
2022-10-31T16:47:35.627Z,15.10
2022-10-31T16:50:02.858Z,15.00
2022-10-31T16:52:38.213Z,14.90
2022-10-31T16:55:14.141Z,14.90
2022-10-31T16:57:45.034Z,15.00
